createdAt,value
2023-02-02T00:16:52.269Z,20.23
2023-02-02T00:18:56.380Z,19.20
2023-02-02T00:20:58.284Z,26.02
2023-02-02T00:23:00.479Z,21.77
2023-02-02T00:25:02.366Z,20.67
2023-02-02T00:27:04.289Z,21.00
2023-02-02T00:29:07.865Z,19.27
2023-02-02T00:31:10.097Z,18.65
2023-02-02T00:33:11.988Z,19.02
2023-02-02T00:35:14.874Z,18.75
2023-02-02T00:37:17.035Z,20.48
2023-02-02T00:39:22.216Z,16.85
2023-02-02T00:41:24.105Z,17.02
2023-02-02T00:43:25.928Z,18.58
2023-02-02T00:45:27.892Z,20.52
2023-02-02T00:49:31.689Z,20.65
2023-02-02T00:53:35.360Z,15.68
2023-02-02T00:55:37.287Z,18.77
2023-02-02T00:57:39.704Z,24.20
2023-02-02T00:59:42.538Z,16.80
2023-02-02T01:01:44.473Z,21.98
2023-02-02T01:05:50.184Z,15.43
2023-02-02T01:07:52.117Z,15.90
2023-02-02T01:09:53.986Z,18.95
2023-02-02T01:11:57.387Z,28.83
2023-02-02T01:13:59.296Z,23.90
2023-02-02T01:16:02.431Z,17.67
2023-02-02T01:18:04.530Z,16.23
2023-02-02T01:22:09.520Z,18.23
2023-02-02T01:24:11.499Z,26.80
2023-02-02T01:28:15.511Z,23.63
2023-02-02T01:30:17.428Z,14.93
2023-02-02T01:32:19.368Z,14.05
2023-02-02T01:36:24.293Z,23.40
2023-02-02T01:38:26.107Z,30.05
2023-02-02T01:40:27.954Z,22.55
2023-02-02T01:42:29.852Z,19.15
2023-02-02T01:44:53.285Z,12.20
2023-02-02T01:46:55.137Z,15.20
2023-02-02T01:49:02.943Z,21.23
2023-02-02T01:51:09.529Z,25.58
2023-02-02T01:53:11.800Z,23.83
2023-02-02T01:55:16.754Z,18.73
2023-02-02T01:57:35.576Z,12.98
2023-02-02T01:59:38.618Z,11.10
2023-02-02T02:01:41.172Z,14.70
2023-02-02T04:15:38.867Z,18.45
2023-02-02T04:19:42.582Z,17.15
2023-02-02T04:23:46.188Z,17.60
2023-02-02T04:25:52.213Z,18.42
2023-02-02T04:27:54.075Z,13.95
2023-02-02T04:29:55.901Z,12.40
2023-02-02T04:31:57.968Z,11.15
2023-02-02T04:34:00.280Z,12.30
2023-02-02T04:36:02.452Z,15.98
2023-02-02T04:38:04.288Z,15.60
2023-02-02T04:40:06.794Z,18.45
2023-02-02T04:42:08.739Z,12.60
2023-02-02T04:44:16.074Z,11.27
2023-02-02T04:46:18.023Z,11.32
2023-02-02T04:48:19.854Z,11.15
2023-02-02T04:50:21.732Z,20.33
2023-02-02T04:52:23.678Z,20.90
2023-02-02T04:54:25.551Z,22.88
2023-02-02T04:56:29.159Z,17.65
2023-02-02T04:58:31.051Z,12.05
2023-02-02T05:00:32.936Z,9.77
2023-02-02T05:02:39.465Z,13.85
2023-02-02T05:04:41.656Z,13.73
2023-02-02T05:06:43.558Z,17.38
2023-02-02T05:08:47.895Z,16.40
2023-02-02T05:10:50.281Z,14.98
2023-02-02T05:12:55.987Z,11.05
2023-02-02T05:15:01.012Z,12.02
2023-02-02T05:17:03.029Z,12.77
2023-02-02T05:21:06.594Z,11.27
2023-02-02T05:23:08.540Z,10.60
2023-02-02T05:27:12.516Z,9.32
2023-02-02T05:29:14.420Z,12.73
2023-02-02T05:31:16.473Z,11.65
2023-02-02T05:33:21.117Z,10.50
2023-02-02T05:35:23.478Z,8.32
2023-02-02T05:37:25.606Z,8.60
2023-02-02T05:39:27.439Z,9.88
2023-02-02T05:41:29.458Z,11.23
2023-02-02T05:45:35.372Z,17.77
2023-02-02T05:47:37.288Z,21.02
2023-02-02T05:49:40.315Z,16.92
2023-02-02T05:51:48.399Z,18.67
2023-02-02T05:53:50.331Z,17.17
2023-02-02T05:55:52.172Z,18.52
2023-02-02T05:57:54.042Z,18.90
2023-02-02T05:59:56.132Z,24.58
2023-02-02T06:01:58.046Z,19.95
2023-02-02T08:14:23.036Z,15.52
2023-02-02T08:16:26.657Z,19.02
2023-02-02T08:18:28.547Z,15.90
2023-02-02T08:20:30.401Z,14.68
2023-02-02T08:22:32.295Z,12.82
2023-02-02T08:24:34.221Z,11.73
2023-02-02T08:26:36.230Z,12.68
2023-02-02T08:30:40.207Z,14.40
2023-02-02T08:32:42.132Z,13.13
2023-02-02T08:34:43.990Z,14.65
2023-02-02T08:36:45.836Z,12.00
2023-02-02T08:38:48.278Z,13.93
2023-02-02T08:40:50.180Z,17.38
2023-02-02T08:42:55.445Z,13.10
2023-02-02T08:46:03.049Z,14.98
2023-02-02T08:47:19.200Z,16.45
2023-02-02T08:49:21.153Z,16.38
2023-02-02T08:51:23.032Z,14.10
2023-02-02T08:53:25.868Z,14.57
2023-02-02T08:55:27.741Z,13.38
2023-02-02T08:57:30.497Z,12.85
2023-02-02T08:59:32.364Z,12.77
2023-02-02T09:01:35.379Z,11.63
2023-02-02T09:03:40.276Z,12.13
2023-02-02T09:05:42.256Z,12.20
2023-02-02T09:07:44.124Z,12.23
2023-02-02T09:09:45.981Z,13.23
2023-02-02T09:11:47.909Z,10.45
2023-02-02T09:13:54.747Z,11.50
2023-02-02T09:16:00.633Z,13.10
2023-02-02T09:18:02.491Z,12.98
2023-02-02T09:20:04.907Z,11.95
2023-02-02T09:22:06.774Z,15.95
2023-02-02T09:24:11.600Z,15.93
2023-02-02T09:26:14.990Z,12.32
2023-02-02T09:28:16.883Z,10.38
2023-02-02T09:30:19.193Z,13.10
2023-02-02T09:32:21.024Z,12.52
2023-02-02T09:34:22.982Z,12.77
2023-02-02T09:36:26.928Z,11.77
2023-02-02T09:38:28.908Z,12.48
2023-02-02T09:40:33.125Z,19.30
2023-02-02T09:43:08.245Z,11.35
2023-02-02T09:45:33.286Z,11.48
2023-02-02T09:47:55.430Z,10.10
2023-02-02T09:50:22.044Z,11.10
2023-02-02T09:52:27.362Z,14.70
2023-02-02T09:54:36.773Z,12.20
2023-02-02T09:56:41.852Z,10.43
2023-02-02T09:58:51.309Z,10.95
2023-02-02T10:01:08.089Z,9.38
2023-02-02T10:03:21.219Z,8.95
2023-02-02T10:05:28.297Z,11.60
2023-02-02T10:07:45.637Z,9.68
2023-02-02T10:09:58.022Z,11.68
2023-02-02T10:12:41.011Z,10.38
2023-02-02T10:14:50.361Z,11.95
2023-02-02T10:16:58.676Z,8.40
2023-02-02T10:19:10.417Z,8.07
2023-02-02T10:21:22.533Z,9.85
2023-02-02T10:23:40.522Z,9.32
2023-02-02T10:25:54.435Z,10.90
2023-02-02T10:28:18.266Z,11.10
2023-02-02T10:30:51.897Z,8.63
2023-02-02T10:33:07.516Z,9.07
2023-02-02T10:35:55.708Z,9.82
2023-02-02T10:38:04.289Z,11.02
2023-02-02T10:40:43.751Z,11.68
2023-02-02T10:43:12.975Z,9.48
2023-02-02T10:45:20.555Z,9.93
2023-02-02T10:47:34.644Z,10.30
2023-02-02T10:49:40.821Z,12.02
2023-02-02T10:51:50.522Z,11.88
2023-02-02T10:53:59.166Z,11.02
2023-02-02T10:56:06.038Z,10.38
2023-02-02T10:58:13.670Z,10.50
2023-02-02T11:00:23.179Z,12.10
2023-02-02T11:02:25.460Z,9.05
2023-02-02T11:06:52.093Z,9.32
2023-02-02T11:09:03.957Z,8.23
2023-02-02T11:11:21.142Z,10.45
2023-02-02T11:13:37.405Z,11.38
2023-02-02T11:15:39.277Z,10.43
2023-02-02T11:17:41.191Z,10.30
2023-02-02T11:19:43.049Z,9.32
2023-02-02T11:21:50.091Z,9.77
2023-02-02T11:23:58.043Z,9.23
2023-02-02T11:26:02.574Z,9.00
2023-02-02T11:28:22.159Z,9.30
2023-02-02T11:30:38.437Z,8.55
2023-02-02T11:32:41.927Z,8.77
2023-02-02T11:34:43.854Z,9.55
2023-02-02T11:37:03.879Z,9.20
2023-02-02T11:39:21.807Z,10.38
2023-02-02T11:41:23.778Z,8.68
2023-02-02T11:43:33.133Z,8.50
2023-02-02T11:45:42.018Z,10.32
2023-02-02T11:47:44.610Z,9.60
2023-02-02T11:49:47.344Z,9.52
2023-02-02T11:52:05.203Z,12.30
2023-02-02T11:54:17.978Z,12.48
2023-02-02T11:56:26.630Z,12.25
2023-02-02T11:58:46.725Z,10.50
2023-02-02T12:00:54.839Z,12.23
2023-02-02T12:03:00.172Z,11.82
2023-02-02T12:05:23.624Z,10.93
2023-02-02T12:07:32.137Z,11.82
2023-02-02T12:09:34.020Z,9.10
2023-02-02T12:11:50.996Z,10.23
2023-02-02T12:14:12.246Z,9.85
2023-02-02T12:16:35.802Z,11.05
2023-02-02T12:19:15.165Z,11.32
2023-02-02T12:21:35.604Z,10.60
2023-02-02T12:24:03.671Z,11.45
2023-02-02T12:26:17.963Z,12.10
2023-02-02T12:28:27.930Z,12.63
2023-02-02T12:30:37.551Z,11.90
2023-02-02T12:32:51.058Z,11.70
2023-02-02T12:35:09.545Z,10.73
2023-02-02T12:37:53.961Z,12.15
2023-02-02T12:40:02.764Z,10.90
2023-02-02T12:42:39.653Z,10.38
2023-02-02T12:44:56.500Z,10.57
2023-02-02T12:47:07.395Z,9.68
2023-02-02T12:49:18.252Z,8.55
2023-02-02T12:51:39.091Z,9.10
2023-02-02T12:54:34.882Z,10.98
2023-02-02T12:56:26.251Z,11.98
2023-02-02T12:58:49.071Z,8.27
2023-02-02T13:00:56.651Z,9.20
2023-02-02T13:03:09.367Z,10.23
2023-02-02T13:05:48.648Z,11.55
2023-02-02T13:08:17.427Z,13.38
2023-02-02T13:10:35.686Z,10.00
2023-02-02T13:12:43.424Z,8.52
2023-02-02T13:14:50.356Z,9.32
2023-02-02T13:16:57.148Z,8.98
2023-02-02T13:19:08.273Z,9.77
2023-02-02T13:21:16.925Z,9.43
2023-02-02T13:23:33.826Z,10.40
2023-02-02T13:25:43.077Z,9.68
2023-02-02T13:27:46.272Z,10.32
2023-02-02T13:29:59.982Z,9.43
2023-02-02T13:32:15.017Z,9.80
2023-02-02T13:34:29.240Z,7.70
2023-02-02T13:36:37.527Z,6.90
2023-02-02T13:38:42.351Z,7.78
2023-02-02T13:40:45.074Z,8.45
2023-02-02T13:43:19.610Z,7.25
2023-02-02T13:45:48.171Z,6.80
2023-02-02T13:47:58.957Z,7.25
2023-02-02T13:50:07.384Z,9.68
2023-02-02T13:52:45.370Z,11.02
2023-02-02T13:55:07.424Z,8.57
2023-02-02T13:57:37.327Z,8.18
2023-02-02T14:00:18.882Z,9.93
2023-02-02T16:14:30.355Z,23.30
2023-02-02T16:16:35.073Z,28.20
2023-02-02T16:18:37.998Z,34.80
2023-02-02T16:20:40.530Z,30.95
2023-02-02T16:22:51.256Z,32.80
2023-02-02T16:24:56.643Z,32.47
2023-02-02T16:27:00.819Z,30.17
2023-02-02T16:29:03.135Z,31.95
2023-02-02T16:31:05.646Z,28.75
2023-02-02T16:33:30.877Z,30.92
2023-02-02T16:35:38.739Z,33.00
2023-02-02T16:37:40.773Z,34.92
2023-02-02T16:41:47.570Z,32.60
2023-02-02T16:43:50.205Z,38.67
2023-02-02T16:45:58.692Z,39.97
2023-02-02T16:48:19.579Z,35.17
2023-02-02T16:50:31.559Z,37.95
2023-02-02T16:52:37.364Z,35.72
2023-02-02T16:54:45.740Z,25.60
2023-02-02T16:56:59.526Z,32.63
2023-02-02T16:59:22.662Z,24.10
2023-02-02T17:01:40.615Z,22.63
2023-02-02T17:03:51.105Z,34.90
2023-02-02T17:05:56.904Z,28.35
2023-02-02T17:08:04.757Z,30.42
2023-02-02T17:10:31.367Z,30.08
2023-02-02T17:12:34.800Z,42.90
2023-02-02T17:14:37.885Z,57.92
2023-02-02T17:16:40.946Z,46.53
2023-02-02T17:18:43.275Z,36.03
2023-02-02T17:20:45.365Z,45.83
2023-02-02T17:24:52.633Z,35.33
2023-02-02T17:26:58.033Z,37.30
2023-02-02T17:29:00.623Z,31.40
2023-02-02T17:31:07.081Z,27.50
2023-02-02T17:33:14.877Z,26.90
2023-02-02T17:35:34.723Z,24.27
2023-02-02T17:37:42.093Z,24.63
2023-02-02T17:41:48.348Z,26.52
2023-02-02T17:43:50.280Z,31.35
2023-02-02T17:45:52.453Z,31.20
2023-02-02T17:47:56.800Z,32.38
2023-02-02T17:49:58.899Z,31.30
2023-02-02T17:54:08.940Z,32.92
2023-02-02T17:56:11.022Z,31.45
2023-02-02T18:00:19.546Z,27.67
2023-02-02T20:14:38.691Z,21.27
2023-02-02T20:16:42.205Z,19.35
2023-02-02T20:18:53.164Z,22.58
2023-02-02T20:20:56.881Z,19.58
2023-02-02T20:22:59.022Z,18.40
2023-02-02T20:25:09.265Z,16.85
2023-02-02T20:27:20.253Z,18.88
2023-02-02T20:29:24.935Z,20.05
2023-02-02T20:31:38.569Z,25.80
2023-02-02T20:33:48.246Z,23.75
2023-02-02T20:35:50.219Z,22.95
2023-02-02T20:37:52.231Z,25.92
2023-02-02T20:42:08.780Z,22.58
2023-02-02T20:46:13.845Z,17.42
2023-02-02T20:48:15.864Z,17.17
2023-02-02T20:52:24.217Z,15.90
2023-02-02T20:54:26.523Z,17.55
2023-02-02T20:56:28.468Z,16.55
2023-02-02T20:58:30.377Z,16.67
2023-02-02T21:00:32.922Z,19.08
2023-02-02T21:02:35.048Z,21.90
2023-02-02T21:06:40.715Z,17.95
2023-02-02T21:08:43.789Z,19.00
2023-02-02T21:10:45.772Z,16.65
2023-02-02T21:14:54.551Z,15.95
2023-02-02T21:17:09.070Z,16.13
2023-02-02T21:19:16.164Z,15.57
2023-02-02T21:21:19.384Z,16.38
2023-02-02T21:23:22.031Z,15.13
2023-02-02T21:25:24.067Z,16.45
2023-02-02T21:29:31.267Z,15.27
2023-02-02T21:31:35.430Z,15.90
2023-02-02T21:33:37.982Z,17.20
2023-02-02T21:35:39.922Z,16.52
2023-02-02T21:37:44.112Z,18.08
2023-02-02T21:39:48.771Z,20.95
2023-02-02T21:41:55.041Z,20.67
2023-02-02T21:43:58.676Z,27.17
2023-02-02T21:46:03.178Z,30.10
2023-02-02T21:48:23.234Z,18.95
2023-02-02T21:50:37.756Z,20.15
2023-02-02T21:52:39.641Z,20.33
2023-02-02T21:54:42.718Z,19.52
2023-02-02T21:56:44.588Z,20.00
2023-02-02T21:58:47.637Z,19.52
2023-02-02T22:00:50.358Z,19.77
